NOZ949 EKCH-ENGM
Flight info
| Callsign | NOZ949 |
|---|---|
| Flight time | N/A |
| Altitude | 34000 |
| Route | VEDAR4A/04R VEDAR DCT SABAK DCT LUNIP |
| Aircraft | B738/M-SDE2E3FGHIRWXY/LB1 |
Departure
| Time | N/A |
|---|---|
| Airport | Copenhagen Kastrup Airport (EKCH) |
Arrival
| Time | 2026-05-06 19:22 |
|---|---|
| Airport | Oslo-Gardermoen International Airport (ENGM) |
| Time | Latitude | Longitude | Altitude | Speed | Heading |
|---|---|---|---|---|---|
| 2026-05-06 18:39 | 56.01619 | 12.50519 | 14035 ft | 371 kts | 335° |
| 2026-05-06 18:39 | 56.03994 | 12.48779 | 14594 ft | 377 kts | 337° |
| 2026-05-06 18:40 | 56.08890 | 12.45229 | 15945 ft | 381 kts | 335° |
| 2026-05-06 18:40 | 56.11324 | 12.43420 | 16537 ft | 386 kts | 335° |
| 2026-05-06 18:40 | 56.13856 | 12.41564 | 17200 ft | 390 kts | 335° |
| 2026-05-06 18:40 | 56.16346 | 12.39743 | 17840 ft | 393 kts | 335° |
| 2026-05-06 18:41 | 56.18888 | 12.37881 | 18435 ft | 397 kts | 334° |
| 2026-05-06 18:41 | 56.21491 | 12.35969 | 18980 ft | 401 kts | 334° |
| 2026-05-06 18:41 | 56.24046 | 12.34086 | 19505 ft | 404 kts | 334° |
| 2026-05-06 18:41 | 56.26662 | 12.32156 | 20009 ft | 409 kts | 334° |
| 2026-05-06 18:42 | 56.29303 | 12.30202 | 20524 ft | 412 kts | 334° |
| 2026-05-06 18:42 | 56.31965 | 12.28230 | 21035 ft | 415 kts | 333° |
| 2026-05-06 18:42 | 56.34644 | 12.26243 | 21535 ft | 419 kts | 333° |
| 2026-05-06 18:42 | 56.37352 | 12.24232 | 22006 ft | 422 kts | 333° |
| 2026-05-06 18:43 | 56.40081 | 12.22202 | 22484 ft | 426 kts | 333° |
| 2026-05-06 18:43 | 56.42832 | 12.20153 | 22984 ft | 429 kts | 333° |
| 2026-05-06 18:43 | 56.45601 | 12.18088 | 23455 ft | 432 kts | 333° |
| 2026-05-06 18:43 | 56.48394 | 12.16000 | 23824 ft | 436 kts | 332° |
| 2026-05-06 18:44 | 56.51207 | 12.13894 | 24192 ft | 439 kts | 333° |
| 2026-05-06 18:44 | 56.54109 | 12.12055 | 24579 ft | 447 kts | 341° |
| 2026-05-06 18:44 | 56.57193 | 12.11006 | 24975 ft | 453 kts | 346° |
| 2026-05-06 18:44 | 56.60321 | 12.10159 | 25324 ft | 457 kts | 346° |
| 2026-05-06 18:45 | 56.63480 | 12.09344 | 25639 ft | 460 kts | 347° |
| 2026-05-06 18:45 | 56.66660 | 12.08521 | 25964 ft | 463 kts | 346° |
| 2026-05-06 18:45 | 56.69856 | 12.07672 | 26293 ft | 466 kts | 346° |
| 2026-05-06 18:45 | 56.71987 | 12.07094 | 26507 ft | 468 kts | 346° |
| 2026-05-06 18:46 | 56.76306 | 12.05899 | 26930 ft | 471 kts | 346° |
| 2026-05-06 18:46 | 56.79560 | 12.04983 | 27252 ft | 474 kts | 346° |
| 2026-05-06 18:46 | 56.82826 | 12.04058 | 27600 ft | 476 kts | 345° |
| 2026-05-06 18:46 | 56.86108 | 12.03124 | 27896 ft | 478 kts | 345° |
| 2026-05-06 18:47 | 56.89406 | 12.02182 | 28168 ft | 481 kts | 345° |
| 2026-05-06 18:47 | 56.92725 | 12.01232 | 28448 ft | 484 kts | 345° |
| 2026-05-06 18:47 | 56.96060 | 12.00278 | 28742 ft | 486 kts | 345° |
| 2026-05-06 18:47 | 56.99398 | 11.99323 | 29139 ft | 485 kts | 345° |
| 2026-05-06 18:48 | 57.01607 | 11.98692 | 29442 ft | 485 kts | 345° |
| 2026-05-06 18:48 | 57.04931 | 11.97742 | 29898 ft | 483 kts | 345° |
| 2026-05-06 18:48 | 57.08252 | 11.96788 | 30262 ft | 483 kts | 345° |
| 2026-05-06 18:48 | 57.11572 | 11.95834 | 30586 ft | 483 kts | 345° |
| 2026-05-06 18:49 | 57.14883 | 11.94882 | 30975 ft | 481 kts | 345° |
| 2026-05-06 18:49 | 57.18186 | 11.93929 | 31385 ft | 479 kts | 345° |
| 2026-05-06 18:49 | 57.21476 | 11.92975 | 31766 ft | 478 kts | 345° |
| 2026-05-06 18:49 | 57.24758 | 11.92020 | 32185 ft | 475 kts | 345° |
| 2026-05-06 18:50 | 57.28013 | 11.91072 | 32613 ft | 473 kts | 345° |
| 2026-05-06 18:50 | 57.31258 | 11.90126 | 32927 ft | 472 kts | 345° |
| 2026-05-06 18:50 | 57.34504 | 11.89176 | 33204 ft | 473 kts | 345° |
| 2026-05-06 18:50 | 57.37753 | 11.88225 | 33565 ft | 472 kts | 345° |
| 2026-05-06 18:51 | 57.40993 | 11.87278 | 33894 ft | 471 kts | 345° |
| 2026-05-06 18:51 | 57.47517 | 11.85357 | 33962 ft | 476 kts | 345° |
| 2026-05-06 18:52 | 57.54049 | 11.83434 | 33944 ft | 473 kts | 345° |
| 2026-05-06 18:52 | 57.60507 | 11.81530 | 33960 ft | 469 kts | 345° |
| 2026-05-06 18:53 | 57.66912 | 11.79621 | 33985 ft | 469 kts | 344° |
| 2026-05-06 18:53 | 57.73408 | 11.77684 | 33977 ft | 470 kts | 344° |
| 2026-05-06 18:54 | 57.79823 | 11.75768 | 33972 ft | 470 kts | 344° |
| 2026-05-06 18:54 | 57.86291 | 11.73829 | 33965 ft | 471 kts | 344° |
| 2026-05-06 18:55 | 57.92766 | 11.71879 | 33963 ft | 472 kts | 344° |
| 2026-05-06 18:55 | 57.99254 | 11.69914 | 33962 ft | 473 kts | 344° |
| 2026-05-06 18:56 | 58.05751 | 11.67944 | 33961 ft | 473 kts | 344° |
| 2026-05-06 18:56 | 58.12267 | 11.65960 | 33954 ft | 474 kts | 344° |
| 2026-05-06 18:57 | 58.18784 | 11.63967 | 33955 ft | 475 kts | 343° |
| 2026-05-06 18:57 | 58.25307 | 11.61909 | 33959 ft | 475 kts | 343° |
| 2026-05-06 18:58 | 58.31829 | 11.59812 | 33953 ft | 476 kts | 343° |
| 2026-05-06 18:58 | 58.38358 | 11.57718 | 33949 ft | 474 kts | 343° |
| 2026-05-06 18:58 | 58.41583 | 11.56692 | 33698 ft | 465 kts | 343° |
| 2026-05-06 18:59 | 58.44763 | 11.55677 | 32997 ft | 464 kts | 343° |
| 2026-05-06 18:59 | 58.47957 | 11.54640 | 32108 ft | 468 kts | 343° |
| 2026-05-06 18:59 | 58.51180 | 11.53593 | 31219 ft | 473 kts | 343° |
| 2026-05-06 18:59 | 58.54420 | 11.52547 | 30566 ft | 471 kts | 343° |
| 2026-05-06 19:00 | 58.57643 | 11.51507 | 29822 ft | 469 kts | 343° |
| 2026-05-06 19:00 | 58.60841 | 11.50470 | 29005 ft | 473 kts | 343° |
| 2026-05-06 19:00 | 58.64104 | 11.49405 | 28202 ft | 477 kts | 343° |
| 2026-05-06 19:00 | 58.67387 | 11.48333 | 27443 ft | 480 kts | 343° |
| 2026-05-06 19:01 | 58.70675 | 11.47263 | 26896 ft | 479 kts | 343° |
| 2026-05-06 19:01 | 58.73962 | 11.46192 | 26346 ft | 479 kts | 343° |
| 2026-05-06 19:01 | 58.77247 | 11.45118 | 25789 ft | 478 kts | 343° |
| 2026-05-06 19:01 | 58.80521 | 11.44046 | 25228 ft | 477 kts | 344° |
| 2026-05-06 19:02 | 58.83792 | 11.42982 | 24754 ft | 476 kts | 345° |
| 2026-05-06 19:02 | 58.87109 | 11.42422 | 24207 ft | 483 kts | 354° |
| 2026-05-06 19:02 | 58.90472 | 11.42604 | 23703 ft | 483 kts | 356° |
| 2026-05-06 19:02 | 58.93828 | 11.42937 | 23123 ft | 481 kts | 357° |
| 2026-05-06 19:03 | 58.97124 | 11.43286 | 22582 ft | 469 kts | 357° |
| 2026-05-06 19:03 | 59.00343 | 11.43596 | 22068 ft | 457 kts | 357° |
| 2026-05-06 19:03 | 59.03479 | 11.43859 | 21655 ft | 445 kts | 356° |
| 2026-05-06 19:03 | 59.06529 | 11.44083 | 21248 ft | 434 kts | 356° |
| 2026-05-06 19:04 | 59.09532 | 11.44282 | 20860 ft | 431 kts | 356° |
| 2026-05-06 19:04 | 59.12526 | 11.44471 | 20498 ft | 429 kts | 356° |
| 2026-05-06 19:04 | 59.15501 | 11.44661 | 20106 ft | 427 kts | 356° |
| 2026-05-06 19:04 | 59.18458 | 11.44853 | 19735 ft | 425 kts | 356° |
| 2026-05-06 19:05 | 59.21404 | 11.45056 | 19356 ft | 421 kts | 356° |
| 2026-05-06 19:05 | 59.24300 | 11.45283 | 18978 ft | 412 kts | 357° |
| 2026-05-06 19:05 | 59.27136 | 11.45515 | 18599 ft | 403 kts | 357° |
| 2026-05-06 19:05 | 59.29909 | 11.45740 | 18232 ft | 395 kts | 357° |
| 2026-05-06 19:06 | 59.32620 | 11.45958 | 17934 ft | 386 kts | 357° |
| 2026-05-06 19:06 | 59.35292 | 11.46169 | 17455 ft | 382 kts | 357° |
| 2026-05-06 19:06 | 59.37930 | 11.46374 | 16983 ft | 377 kts | 357° |
| 2026-05-06 19:06 | 59.40540 | 11.46577 | 16500 ft | 375 kts | 356° |
| 2026-05-06 19:07 | 59.43106 | 11.46776 | 15995 ft | 372 kts | 357° |
| 2026-05-06 19:07 | 59.45682 | 11.46977 | 15511 ft | 369 kts | 357° |
| 2026-05-06 19:07 | 59.48239 | 11.47174 | 15016 ft | 367 kts | 357° |
| 2026-05-06 19:07 | 59.50779 | 11.47370 | 14548 ft | 364 kts | 357° |
| 2026-05-06 19:08 | 59.53303 | 11.47568 | 14072 ft | 362 kts | 358° |
| 2026-05-06 19:08 | 59.55814 | 11.47766 | 13574 ft | 360 kts | 358° |
| 2026-05-06 19:08 | 59.58310 | 11.47965 | 13076 ft | 358 kts | 358° |
| 2026-05-06 19:08 | 59.60784 | 11.48162 | 12606 ft | 355 kts | 358° |
| 2026-05-06 19:09 | 59.63117 | 11.48347 | 12159 ft | 352 kts | 358° |
| 2026-05-06 19:09 | 59.65569 | 11.48540 | 11964 ft | 354 kts | 359° |
| 2026-05-06 19:09 | 59.68021 | 11.48732 | 11949 ft | 353 kts | 358° |
| 2026-05-06 19:09 | 59.70430 | 11.48925 | 11924 ft | 343 kts | 358° |
| 2026-05-06 19:10 | 59.72766 | 11.49118 | 11913 ft | 328 kts | 358° |
| 2026-05-06 19:10 | 59.75003 | 11.49302 | 11847 ft | 316 kts | 358° |
| 2026-05-06 19:10 | 59.77175 | 11.49477 | 11625 ft | 310 kts | 358° |
| 2026-05-06 19:10 | 59.79323 | 11.49646 | 11314 ft | 307 kts | 358° |
| 2026-05-06 19:11 | 59.81451 | 11.49816 | 10993 ft | 305 kts | 358° |
| 2026-05-06 19:11 | 59.83571 | 11.49983 | 10669 ft | 304 kts | 359° |
| 2026-05-06 19:11 | 59.85654 | 11.50151 | 10578 ft | 294 kts | 359° |
| 2026-05-06 19:11 | 59.87673 | 11.50317 | 10434 ft | 287 kts | 359° |
| 2026-05-06 19:12 | 59.89654 | 11.50476 | 10135 ft | 285 kts | 359° |
| 2026-05-06 19:12 | 59.91691 | 11.50632 | 9480 ft | 297 kts | 359° |
| 2026-05-06 19:12 | 59.93760 | 11.50795 | 9064 ft | 298 kts | 360° |
| 2026-05-06 19:12 | 59.95824 | 11.50961 | 8746 ft | 295 kts | 360° |
| 2026-05-06 19:13 | 59.97869 | 11.51128 | 8448 ft | 293 kts | 0° |
| 2026-05-06 19:13 | 59.99896 | 11.51293 | 8144 ft | 290 kts | 0° |
| 2026-05-06 19:13 | 60.01899 | 11.51458 | 7844 ft | 286 kts | 0° |
| 2026-05-06 19:13 | 60.03872 | 11.51623 | 7561 ft | 282 kts | 0° |
| 2026-05-06 19:14 | 60.05821 | 11.51781 | 7278 ft | 279 kts | 0° |
| 2026-05-06 19:14 | 60.07752 | 11.51939 | 6988 ft | 277 kts | 0° |
| 2026-05-06 19:14 | 60.09669 | 11.52095 | 6706 ft | 274 kts | 0° |
| 2026-05-06 19:14 | 60.11567 | 11.52249 | 6438 ft | 272 kts | 1° |
| 2026-05-06 19:15 | 60.13450 | 11.52401 | 6147 ft | 270 kts | 1° |
| 2026-05-06 19:15 | 60.15320 | 11.52552 | 5858 ft | 268 kts | 1° |
| 2026-05-06 19:15 | 60.17169 | 11.52701 | 5577 ft | 265 kts | 1° |
| 2026-05-06 19:15 | 60.19004 | 11.52855 | 5329 ft | 262 kts | 1° |
| 2026-05-06 19:16 | 60.20794 | 11.53005 | 5221 ft | 254 kts | 1° |
| 2026-05-06 19:16 | 60.22530 | 11.53148 | 5109 ft | 245 kts | 359° |
| 2026-05-06 19:16 | 60.24149 | 11.52470 | 4988 ft | 236 kts | 328° |
| 2026-05-06 19:16 | 60.25313 | 11.50305 | 4806 ft | 224 kts | 302° |
| 2026-05-06 19:17 | 60.25921 | 11.47519 | 4613 ft | 214 kts | 285° |
| 2026-05-06 19:17 | 60.26277 | 11.44580 | 4066 ft | 220 kts | 283° |
| 2026-05-06 19:17 | 60.26606 | 11.41652 | 3758 ft | 212 kts | 282° |
| 2026-05-06 19:17 | 60.26919 | 11.38821 | 3544 ft | 202 kts | 282° |
| 2026-05-06 19:18 | 60.27222 | 11.36117 | 3339 ft | 194 kts | 283° |
| 2026-05-06 19:18 | 60.27516 | 11.33532 | 3168 ft | 186 kts | 283° |
| 2026-05-06 19:18 | 60.27764 | 11.30970 | 3005 ft | 187 kts | 276° |
| 2026-05-06 19:18 | 60.27815 | 11.28345 | 2846 ft | 189 kts | 268° |
| 2026-05-06 19:19 | 60.27652 | 11.25711 | 2651 ft | 190 kts | 257° |
| 2026-05-06 19:19 | 60.27227 | 11.23194 | 2484 ft | 190 kts | 246° |
| 2026-05-06 19:19 | 60.26618 | 11.20833 | 2249 ft | 188 kts | 243° |
| 2026-05-06 19:19 | 60.26019 | 11.18572 | 1992 ft | 177 kts | 239° |
| 2026-05-06 19:20 | 60.25302 | 11.16677 | 1787 ft | 163 kts | 230° |
| 2026-05-06 19:20 | 60.24543 | 11.15203 | 1647 ft | 143 kts | 215° |
| 2026-05-06 19:20 | 60.23685 | 11.14384 | 1429 ft | 134 kts | 200° |
| 2026-05-06 19:20 | 60.22799 | 11.13793 | 1243 ft | 136 kts | 196° |
| 2026-05-06 19:21 | 60.21890 | 11.13274 | 1091 ft | 136 kts | 197° |
| 2026-05-06 19:21 | 60.20969 | 11.12738 | 902 ft | 138 kts | 197° |
| 2026-05-06 19:21 | 60.20054 | 11.12210 | 728 ft | 136 kts | 197° |
| 2026-05-06 19:21 | 60.19226 | 11.11730 | 682 ft | 101 kts | 196° |
| 2026-05-06 19:22 | 60.18753 | 11.11458 | 683 ft | 39 kts | 196° |
| 2026-05-06 19:22 | 60.18564 | 11.11328 | 682 ft | 27 kts | 204° |
| 2026-05-06 19:22 | 60.18443 | 11.11134 | 681 ft | 18 kts | 246° |
| 2026-05-06 19:22 | 60.18444 | 11.11000 | 678 ft | 4 kts | 287° |
| 2026-05-06 19:23 | 60.18447 | 11.10980 | 680 ft | 1 kts | 287° |
| 2026-05-06 19:23 | 60.18447 | 11.10977 | 680 ft | 0 kts | 287° |
| 2026-05-06 19:23 | 60.18448 | 11.10974 | 680 ft | 2 kts | 287° |
| 2026-05-06 19:23 | 60.18459 | 11.10896 | 677 ft | 9 kts | 287° |
| 2026-05-06 19:24 | 60.18495 | 11.10764 | 680 ft | 12 kts | 336° |
| 2026-05-06 19:24 | 60.18577 | 11.10795 | 681 ft | 13 kts | 16° |
| 2026-05-06 19:24 | 60.18681 | 11.10855 | 681 ft | 18 kts | 15° |
| 2026-05-06 19:24 | 60.18821 | 11.10936 | 682 ft | 23 kts | 15° |
| 2026-05-06 19:25 | 60.18983 | 11.11029 | 682 ft | 25 kts | 15° |
| 2026-05-06 19:25 | 60.19141 | 11.11120 | 683 ft | 23 kts | 16° |
| 2026-05-06 19:25 | 60.19292 | 11.11208 | 683 ft | 21 kts | 16° |
| 2026-05-06 19:25 | 60.19393 | 11.11259 | 680 ft | 11 kts | 357° |
| 2026-05-06 19:26 | 60.19433 | 11.11133 | 682 ft | 13 kts | 285° |
| 2026-05-06 19:26 | 60.19462 | 11.10932 | 682 ft | 17 kts | 287° |
| 2026-05-06 19:26 | 60.19494 | 11.10706 | 681 ft | 17 kts | 285° |
| 2026-05-06 19:26 | 60.19522 | 11.10513 | 682 ft | 13 kts | 286° |
| 2026-05-06 19:27 | 60.19525 | 11.10407 | 682 ft | 6 kts | 224° |
| 2026-05-06 19:27 | 60.19485 | 11.10378 | 680 ft | 6 kts | 196° |
| 2026-05-06 19:27 | 60.19455 | 11.10360 | 684 ft | 0 kts | 196° |